sensor_id;sensor_type;location;lat;lon;timestamp;P1;durP1;ratioP1;P2;durP2;ratioP2
81374;SDS011;70828;51.158;4.998;2023-07-29T00:00:38;5.57;;;2.13;;
81374;SDS011;70828;51.158;4.998;2023-07-29T00:03:04;3.35;;;2.00;;
81374;SDS011;70828;51.158;4.998;2023-07-29T00:05:31;2.47;;;2.00;;
81374;SDS011;70828;51.158;4.998;2023-07-29T00:07:58;3.72;;;2.22;;
81374;SDS011;70828;51.158;4.998;2023-07-29T00:10:24;4.25;;;2.30;;
81374;SDS011;70828;51.158;4.998;2023-07-29T00:12:51;3.08;;;2.35;;
81374;SDS011;70828;51.158;4.998;2023-07-29T00:15:19;6.28;;;2.03;;
81374;SDS011;70828;51.158;4.998;2023-07-29T00:17:46;3.03;;;2.40;;
81374;SDS011;70828;51.158;4.998;2023-07-29T00:20:12;3.67;;;2.17;;
81374;SDS011;70828;51.158;4.998;2023-07-29T00:22:39;3.10;;;1.88;;
81374;SDS011;70828;51.158;4.998;2023-07-29T00:25:06;5.75;;;2.20;;
81374;SDS011;70828;51.158;4.998;2023-07-29T00:27:33;2.50;;;2.00;;
81374;SDS011;70828;51.158;4.998;2023-07-29T00:29:59;4.40;;;2.30;;
81374;SDS011;70828;51.158;4.998;2023-07-29T00:32:28;3.17;;;2.38;;
81374;SDS011;70828;51.158;4.998;2023-07-29T00:34:55;3.40;;;2.70;;
81374;SDS011;70828;51.158;4.998;2023-07-29T00:37:22;4.05;;;2.30;;
81374;SDS011;70828;51.158;4.998;2023-07-29T00:39:48;3.95;;;2.45;;
81374;SDS011;70828;51.158;4.998;2023-07-29T00:42:15;3.78;;;2.30;;
81374;SDS011;70828;51.158;4.998;2023-07-29T00:44:42;3.45;;;2.70;;
81374;SDS011;70828;51.158;4.998;2023-07-29T00:47:08;3.42;;;2.30;;
81374;SDS011;70828;51.158;4.998;2023-07-29T00:49:36;7.88;;;2.40;;
81374;SDS011;70828;51.158;4.998;2023-07-29T00:52:03;3.08;;;2.20;;
81374;SDS011;70828;51.158;4.998;2023-07-29T00:54:30;3.58;;;2.30;;
81374;SDS011;70828;51.158;4.998;2023-07-29T00:56:57;2.80;;;2.15;;
81374;SDS011;70828;51.158;4.998;2023-07-29T00:59:24;5.20;;;2.83;;
81374;SDS011;70828;51.158;4.998;2023-07-29T01:01:53;4.45;;;2.15;;
81374;SDS011;70828;51.158;4.998;2023-07-29T01:04:19;4.35;;;2.20;;
81374;SDS011;70828;51.158;4.998;2023-07-29T01:06:49;2.60;;;1.40;;
81374;SDS011;70828;51.158;4.998;2023-07-29T01:09:20;3.65;;;1.70;;
81374;SDS011;70828;51.158;4.998;2023-07-29T01:11:53;10.65;;;2.13;;
81374;SDS011;70828;51.158;4.998;2023-07-29T01:14:25;3.28;;;1.80;;
81374;SDS011;70828;51.158;4.998;2023-07-29T01:16:56;3.20;;;1.90;;
81374;SDS011;70828;51.158;4.998;2023-07-29T01:19:39;2.60;;;1.77;;
81374;SDS011;70828;51.158;4.998;2023-07-29T01:22:11;3.28;;;2.08;;
81374;SDS011;70828;51.158;4.998;2023-07-29T01:24:39;6.28;;;1.80;;
81374;SDS011;70828;51.158;4.998;2023-07-29T01:27:06;2.47;;;1.67;;
81374;SDS011;70828;51.158;4.998;2023-07-29T01:29:33;3.60;;;2.00;;
81374;SDS011;70828;51.158;4.998;2023-07-29T01:32:01;2.08;;;1.75;;
81374;SDS011;70828;51.158;4.998;2023-07-29T01:34:32;2.78;;;1.70;;
81374;SDS011;70828;51.158;4.998;2023-07-29T01:37:01;6.53;;;1.70;;
81374;SDS011;70828;51.158;4.998;2023-07-29T01:39:29;3.08;;;1.73;;
81374;SDS011;70828;51.158;4.998;2023-07-29T01:41:57;3.03;;;1.63;;
81374;SDS011;70828;51.158;4.998;2023-07-29T01:44:24;5.22;;;1.63;;
81374;SDS011;70828;51.158;4.998;2023-07-29T01:46:51;3.00;;;1.58;;
81374;SDS011;70828;51.158;4.998;2023-07-29T01:49:18;5.47;;;2.13;;
81374;SDS011;70828;51.158;4.998;2023-07-29T01:51:45;4.20;;;1.70;;
81374;SDS011;70828;51.158;4.998;2023-07-29T01:54:11;2.92;;;1.63;;
81374;SDS011;70828;51.158;4.998;2023-07-29T01:56:38;2.53;;;1.38;;
81374;SDS011;70828;51.158;4.998;2023-07-29T01:59:06;3.33;;;1.60;;
81374;SDS011;70828;51.158;4.998;2023-07-29T02:01:32;3.55;;;1.60;;
81374;SDS011;70828;51.158;4.998;2023-07-29T02:03:59;6.78;;;2.63;;
81374;SDS011;70828;51.158;4.998;2023-07-29T02:06:25;3.15;;;1.25;;
81374;SDS011;70828;51.158;4.998;2023-07-29T02:08:52;2.03;;;1.42;;
81374;SDS011;70828;51.158;4.998;2023-07-29T02:11:19;2.88;;;1.42;;
81374;SDS011;70828;51.158;4.998;2023-07-29T02:13:52;3.47;;;1.65;;
81374;SDS011;70828;51.158;4.998;2023-07-29T02:16:20;6.35;;;1.70;;
81374;SDS011;70828;51.158;4.998;2023-07-29T02:18:47;4.68;;;2.33;;
81374;SDS011;70828;51.158;4.998;2023-07-29T02:21:14;7.40;;;3.22;;
81374;SDS011;70828;51.158;4.998;2023-07-29T02:23:41;4.32;;;1.88;;
81374;SDS011;70828;51.158;4.998;2023-07-29T02:26:07;2.95;;;1.65;;
81374;SDS011;70828;51.158;4.998;2023-07-29T02:28:34;3.55;;;1.90;;
81374;SDS011;70828;51.158;4.998;2023-07-29T02:31:15;3.63;;;1.90;;
81374;SDS011;70828;51.158;4.998;2023-07-29T02:33:44;3.22;;;2.00;;
81374;SDS011;70828;51.158;4.998;2023-07-29T02:36:11;3.60;;;1.88;;
81374;SDS011;70828;51.158;4.998;2023-07-29T02:38:38;3.40;;;1.80;;
81374;SDS011;70828;51.158;4.998;2023-07-29T02:41:05;5.00;;;2.00;;
81374;SDS011;70828;51.158;4.998;2023-07-29T02:43:34;3.28;;;2.13;;
81374;SDS011;70828;51.158;4.998;2023-07-29T02:46:00;2.08;;;1.83;;
81374;SDS011;70828;51.158;4.998;2023-07-29T02:48:27;3.05;;;2.13;;
81374;SDS011;70828;51.158;4.998;2023-07-29T02:50:55;2.85;;;2.00;;
81374;SDS011;70828;51.158;4.998;2023-07-29T02:53:22;5.30;;;2.33;;
81374;SDS011;70828;51.158;4.998;2023-07-29T02:55:48;2.28;;;1.80;;
81374;SDS011;70828;51.158;4.998;2023-07-29T02:58:15;3.55;;;1.95;;
81374;SDS011;70828;51.158;4.998;2023-07-29T03:00:42;2.42;;;1.92;;
81374;SDS011;70828;51.158;4.998;2023-07-29T03:03:08;3.25;;;2.03;;
81374;SDS011;70828;51.158;4.998;2023-07-29T03:05:35;8.23;;;2.38;;
81374;SDS011;70828;51.158;4.998;2023-07-29T03:08:04;3.50;;;1.92;;
81374;SDS011;70828;51.158;4.998;2023-07-29T03:10:31;3.78;;;1.77;;
81374;SDS011;70828;51.158;4.998;2023-07-29T03:13:00;3.63;;;2.00;;
81374;SDS011;70828;51.158;4.998;2023-07-29T03:15:27;4.95;;;2.05;;
81374;SDS011;70828;51.158;4.998;2023-07-29T03:17:53;3.40;;;1.77;;
81374;SDS011;70828;51.158;4.998;2023-07-29T03:20:20;5.65;;;2.30;;
81374;SDS011;70828;51.158;4.998;2023-07-29T03:22:47;3.17;;;1.75;;
81374;SDS011;70828;51.158;4.998;2023-07-29T03:25:15;3.28;;;1.73;;
81374;SDS011;70828;51.158;4.998;2023-07-29T03:27:41;5.40;;;2.13;;
81374;SDS011;70828;51.158;4.998;2023-07-29T03:30:08;2.53;;;1.88;;
81374;SDS011;70828;51.158;4.998;2023-07-29T03:32:37;3.35;;;1.98;;
81374;SDS011;70828;51.158;4.998;2023-07-29T03:35:05;3.35;;;2.17;;
81374;SDS011;70828;51.158;4.998;2023-07-29T03:37:32;5.38;;;1.80;;
81374;SDS011;70828;51.158;4.998;2023-07-29T03:39:59;3.97;;;1.80;;
81374;SDS011;70828;51.158;4.998;2023-07-29T03:42:27;5.88;;;2.20;;
81374;SDS011;70828;51.158;4.998;2023-07-29T03:44:53;4.10;;;1.80;;
81374;SDS011;70828;51.158;4.998;2023-07-29T03:47:20;4.13;;;2.38;;
81374;SDS011;70828;51.158;4.998;2023-07-29T03:49:46;2.95;;;1.83;;
81374;SDS011;70828;51.158;4.998;2023-07-29T03:52:13;2.83;;;1.83;;
81374;SDS011;70828;51.158;4.998;2023-07-29T03:54:40;5.18;;;2.58;;
81374;SDS011;70828;51.158;4.998;2023-07-29T03:57:07;3.08;;;1.70;;
81374;SDS011;70828;51.158;4.998;2023-07-29T03:59:35;4.07;;;1.60;;
81374;SDS011;70828;51.158;4.998;2023-07-29T04:02:01;6.03;;;2.13;;
81374;SDS011;70828;51.158;4.998;2023-07-29T04:04:28;4.05;;;2.15;;
81374;SDS011;70828;51.158;4.998;2023-07-29T04:06:54;3.55;;;2.40;;
81374;SDS011;70828;51.158;4.998;2023-07-29T04:09:21;3.17;;;1.80;;
81374;SDS011;70828;51.158;4.998;2023-07-29T04:11:48;3.53;;;2.00;;
81374;SDS011;70828;51.158;4.998;2023-07-29T04:14:14;2.83;;;2.00;;
81374;SDS011;70828;51.158;4.998;2023-07-29T04:16:42;4.05;;;1.65;;
81374;SDS011;70828;51.158;4.998;2023-07-29T04:19:10;3.42;;;1.67;;
81374;SDS011;70828;51.158;4.998;2023-07-29T04:21:36;2.78;;;1.70;;
81374;SDS011;70828;51.158;4.998;2023-07-29T04:24:03;2.80;;;1.52;;
81374;SDS011;70828;51.158;4.998;2023-07-29T04:26:30;6.35;;;1.90;;
81374;SDS011;70828;51.158;4.998;2023-07-29T04:28:57;3.70;;;1.80;;
81374;SDS011;70828;51.158;4.998;2023-07-29T04:31:24;2.85;;;1.65;;
81374;SDS011;70828;51.158;4.998;2023-07-29T04:33:52;3.42;;;1.60;;
81374;SDS011;70828;51.158;4.998;2023-07-29T04:36:19;2.25;;;1.60;;
81374;SDS011;70828;51.158;4.998;2023-07-29T04:38:45;8.35;;;1.83;;
81374;SDS011;70828;51.158;4.998;2023-07-29T04:41:12;2.42;;;1.50;;
81374;SDS011;70828;51.158;4.998;2023-07-29T04:43:38;2.75;;;1.63;;
81374;SDS011;70828;51.158;4.998;2023-07-29T04:46:06;3.20;;;1.80;;
81374;SDS011;70828;51.158;4.998;2023-07-29T04:48:33;2.45;;;1.45;;
81374;SDS011;70828;51.158;4.998;2023-07-29T04:51:01;5.38;;;1.52;;
81374;SDS011;70828;51.158;4.998;2023-07-29T04:53:27;3.08;;;1.30;;
81374;SDS011;70828;51.158;4.998;2023-07-29T04:55:54;2.33;;;1.25;;
81374;SDS011;70828;51.158;4.998;2023-07-29T04:58:21;3.97;;;1.95;;
81374;SDS011;70828;51.158;4.998;2023-07-29T05:00:47;2.55;;;1.90;;
81374;SDS011;70828;51.158;4.998;2023-07-29T05:03:14;2.50;;;1.27;;
81374;SDS011;70828;51.158;4.998;2023-07-29T05:05:41;2.30;;;1.42;;
81374;SDS011;70828;51.158;4.998;2023-07-29T05:08:09;4.22;;;1.73;;
81374;SDS011;70828;51.158;4.998;2023-07-29T05:10:35;3.22;;;1.40;;
81374;SDS011;70828;51.158;4.998;2023-07-29T05:13:02;1.98;;;1.35;;
81374;SDS011;70828;51.158;4.998;2023-07-29T05:15:29;2.70;;;1.65;;
81374;SDS011;70828;51.158;4.998;2023-07-29T05:17:55;3.95;;;1.50;;
81374;SDS011;70828;51.158;4.998;2023-07-29T05:20:22;2.60;;;1.55;;
81374;SDS011;70828;51.158;4.998;2023-07-29T05:22:49;2.30;;;1.33;;
81374;SDS011;70828;51.158;4.998;2023-07-29T05:25:17;2.40;;;1.73;;
81374;SDS011;70828;51.158;4.998;2023-07-29T05:27:43;1.38;;;1.02;;
81374;SDS011;70828;51.158;4.998;2023-07-29T05:30:10;2.05;;;1.50;;
81374;SDS011;70828;51.158;4.998;2023-07-29T05:32:37;2.42;;;1.20;;
81374;SDS011;70828;51.158;4.998;2023-07-29T05:35:04;3.92;;;1.42;;
81374;SDS011;70828;51.158;4.998;2023-07-29T05:37:31;7.28;;;1.50;;
81374;SDS011;70828;51.158;4.998;2023-07-29T05:39:58;4.70;;;1.30;;
81374;SDS011;70828;51.158;4.998;2023-07-29T05:42:26;2.97;;;1.30;;
81374;SDS011;70828;51.158;4.998;2023-07-29T05:44:53;2.20;;;1.25;;
81374;SDS011;70828;51.158;4.998;2023-07-29T05:47:19;8.98;;;1.70;;
81374;SDS011;70828;51.158;4.998;2023-07-29T05:49:46;2.60;;;1.80;;
81374;SDS011;70828;51.158;4.998;2023-07-29T05:52:12;3.40;;;1.50;;
81374;SDS011;70828;51.158;4.998;2023-07-29T05:54:39;3.22;;;1.40;;
81374;SDS011;70828;51.158;4.998;2023-07-29T05:57:08;1.88;;;1.20;;
81374;SDS011;70828;51.158;4.998;2023-07-29T05:59:36;10.63;;;2.63;;
81374;SDS011;70828;51.158;4.998;2023-07-29T06:02:03;2.75;;;1.30;;
81374;SDS011;70828;51.158;4.998;2023-07-29T06:04:30;3.08;;;1.30;;
81374;SDS011;70828;51.158;4.998;2023-07-29T06:06:57;3.58;;;1.25;;
81374;SDS011;70828;51.158;4.998;2023-07-29T06:09:23;2.15;;;1.67;;
81374;SDS011;70828;51.158;4.998;2023-07-29T06:11:50;4.15;;;1.70;;
81374;SDS011;70828;51.158;4.998;2023-07-29T06:14:17;2.95;;;1.63;;
81374;SDS011;70828;51.158;4.998;2023-07-29T06:16:45;3.13;;;1.40;;
81374;SDS011;70828;51.158;4.998;2023-07-29T06:19:11;4.57;;;1.83;;
81374;SDS011;70828;51.158;4.998;2023-07-29T06:21:38;1.60;;;1.30;;
81374;SDS011;70828;51.158;4.998;2023-07-29T06:24:05;2.08;;;1.27;;
81374;SDS011;70828;51.158;4.998;2023-07-29T06:26:31;2.22;;;1.40;;
81374;SDS011;70828;51.158;4.998;2023-07-29T06:28:58;3.88;;;1.40;;
81374;SDS011;70828;51.158;4.998;2023-07-29T06:31:25;1.80;;;1.10;;
81374;SDS011;70828;51.158;4.998;2023-07-29T06:33:53;3.00;;;1.25;;
81374;SDS011;70828;51.158;4.998;2023-07-29T06:36:20;1.55;;;1.17;;
81374;SDS011;70828;51.158;4.998;2023-07-29T06:38:46;1.92;;;1.05;;
81374;SDS011;70828;51.158;4.998;2023-07-29T06:41:13;3.15;;;0.80;;
81374;SDS011;70828;51.158;4.998;2023-07-29T06:43:40;2.05;;;1.42;;
81374;SDS011;70828;51.158;4.998;2023-07-29T06:46:06;1.85;;;1.17;;
81374;SDS011;70828;51.158;4.998;2023-07-29T06:48:33;2.33;;;0.90;;
81374;SDS011;70828;51.158;4.998;2023-07-29T06:51:01;1.73;;;1.20;;
81374;SDS011;70828;51.158;4.998;2023-07-29T06:53:28;2.53;;;1.30;;
81374;SDS011;70828;51.158;4.998;2023-07-29T06:55:54;2.40;;;1.25;;
81374;SDS011;70828;51.158;4.998;2023-07-29T06:58:21;2.40;;;1.38;;
81374;SDS011;70828;51.158;4.998;2023-07-29T07:00:48;2.28;;;1.17;;
81374;SDS011;70828;51.158;4.998;2023-07-29T07:03:14;3.63;;;1.02;;
81374;SDS011;70828;51.158;4.998;2023-07-29T07:05:41;3.78;;;1.25;;
81374;SDS011;70828;51.158;4.998;2023-07-29T07:08:09;1.63;;;0.85;;
81374;SDS011;70828;51.158;4.998;2023-07-29T07:10:36;1.48;;;1.08;;
81374;SDS011;70828;51.158;4.998;2023-07-29T07:13:03;2.00;;;1.08;;
81374;SDS011;70828;51.158;4.998;2023-07-29T07:15:29;1.20;;;0.88;;
81374;SDS011;70828;51.158;4.998;2023-07-29T07:17:57;2.30;;;1.20;;
81374;SDS011;70828;51.158;4.998;2023-07-29T07:20:23;4.28;;;1.23;;
81374;SDS011;70828;51.158;4.998;2023-07-29T07:22:50;2.40;;;0.98;;
81374;SDS011;70828;51.158;4.998;2023-07-29T07:25:18;3.67;;;1.00;;
81374;SDS011;70828;51.158;4.998;2023-07-29T07:27:45;2.35;;;0.98;;
81374;SDS011;70828;51.158;4.998;2023-07-29T07:30:12;2.92;;;0.88;;
81374;SDS011;70828;51.158;4.998;2023-07-29T07:32:38;3.47;;;0.98;;
81374;SDS011;70828;51.158;4.998;2023-07-29T07:35:05;2.22;;;1.20;;
81374;SDS011;70828;51.158;4.998;2023-07-29T07:37:32;1.50;;;1.00;;
81374;SDS011;70828;51.158;4.998;2023-07-29T07:39:59;2.17;;;0.95;;
81374;SDS011;70828;51.158;4.998;2023-07-29T07:42:27;3.35;;;1.23;;
81374;SDS011;70828;51.158;4.998;2023-07-29T07:44:54;3.20;;;0.75;;
81374;SDS011;70828;51.158;4.998;2023-07-29T07:47:21;1.35;;;0.90;;
81374;SDS011;70828;51.158;4.998;2023-07-29T07:49:48;4.07;;;0.90;;
81374;SDS011;70828;51.158;4.998;2023-07-29T07:52:15;2.63;;;1.17;;
81374;SDS011;70828;51.158;4.998;2023-07-29T07:54:42;6.43;;;1.08;;
81374;SDS011;70828;51.158;4.998;2023-07-29T07:57:11;3.30;;;0.80;;
81374;SDS011;70828;51.158;4.998;2023-07-29T07:59:39;1.60;;;1.00;;
81374;SDS011;70828;51.158;4.998;2023-07-29T08:02:06;2.20;;;0.85;;
81374;SDS011;70828;51.158;4.998;2023-07-29T08:04:33;1.33;;;0.80;;
81374;SDS011;70828;51.158;4.998;2023-07-29T08:06:59;2.88;;;1.15;;
81374;SDS011;70828;51.158;4.998;2023-07-29T08:09:26;1.27;;;0.77;;
81374;SDS011;70828;51.158;4.998;2023-07-29T08:11:53;1.92;;;1.25;;
81374;SDS011;70828;51.158;4.998;2023-07-29T08:14:20;4.75;;;1.00;;
81374;SDS011;70828;51.158;4.998;2023-07-29T08:16:48;1.35;;;0.80;;
81374;SDS011;70828;51.158;4.998;2023-07-29T08:19:14;3.08;;;1.00;;
81374;SDS011;70828;51.158;4.998;2023-07-29T08:21:41;2.92;;;1.00;;
81374;SDS011;70828;51.158;4.998;2023-07-29T08:24:08;4.72;;;1.13;;
81374;SDS011;70828;51.158;4.998;2023-07-29T08:26:34;1.30;;;0.90;;
81374;SDS011;70828;51.158;4.998;2023-07-29T08:29:01;1.95;;;0.80;;
81374;SDS011;70828;51.158;4.998;2023-07-29T08:31:28;2.35;;;0.93;;
81374;SDS011;70828;51.158;4.998;2023-07-29T08:33:57;1.58;;;1.00;;
81374;SDS011;70828;51.158;4.998;2023-07-29T08:36:24;1.42;;;0.70;;
81374;SDS011;70828;51.158;4.998;2023-07-29T08:38:50;1.17;;;0.90;;
81374;SDS011;70828;51.158;4.998;2023-07-29T08:41:19;2.80;;;0.60;;
81374;SDS011;70828;51.158;4.998;2023-07-29T08:43:48;4.80;;;0.75;;
81374;SDS011;70828;51.158;4.998;2023-07-29T08:46:17;0.80;;;0.60;;
81374;SDS011;70828;51.158;4.998;2023-07-29T08:48:45;6.65;;;1.00;;
81374;SDS011;70828;51.158;4.998;2023-07-29T08:51:13;1.30;;;0.70;;
81374;SDS011;70828;51.158;4.998;2023-07-29T08:53:41;2.03;;;1.00;;
81374;SDS011;70828;51.158;4.998;2023-07-29T08:56:07;1.50;;;0.80;;
81374;SDS011;70828;51.158;4.998;2023-07-29T08:58:35;1.58;;;0.93;;
81374;SDS011;70828;51.158;4.998;2023-07-29T09:01:01;2.35;;;0.73;;
81374;SDS011;70828;51.158;4.998;2023-07-29T09:03:28;2.25;;;0.70;;
81374;SDS011;70828;51.158;4.998;2023-07-29T09:05:55;1.33;;;0.65;;
81374;SDS011;70828;51.158;4.998;2023-07-29T09:08:24;1.00;;;0.60;;
81374;SDS011;70828;51.158;4.998;2023-07-29T09:10:51;1.15;;;0.80;;
81374;SDS011;70828;51.158;4.998;2023-07-29T09:13:17;1.25;;;0.70;;
81374;SDS011;70828;51.158;4.998;2023-07-29T09:15:45;1.30;;;0.80;;
81374;SDS011;70828;51.158;4.998;2023-07-29T09:18:12;1.25;;;0.75;;
81374;SDS011;70828;51.158;4.998;2023-07-29T09:20:42;0.82;;;0.68;;
81374;SDS011;70828;51.158;4.998;2023-07-29T09:23:09;2.75;;;1.00;;
81374;SDS011;70828;51.158;4.998;2023-07-29T09:25:37;1.30;;;0.85;;
81374;SDS011;70828;51.158;4.998;2023-07-29T09:28:09;1.13;;;0.65;;
81374;SDS011;70828;51.158;4.998;2023-07-29T09:30:37;1.15;;;0.65;;
81374;SDS011;70828;51.158;4.998;2023-07-29T09:33:04;2.13;;;0.75;;
81374;SDS011;70828;51.158;4.998;2023-07-29T09:35:32;1.42;;;0.80;;
81374;SDS011;70828;51.158;4.998;2023-07-29T09:38:00;1.55;;;0.70;;
81374;SDS011;70828;51.158;4.998;2023-07-29T09:40:27;1.40;;;0.85;;
81374;SDS011;70828;51.158;4.998;2023-07-29T09:42:55;1.30;;;0.77;;
81374;SDS011;70828;51.158;4.998;2023-07-29T09:45:22;2.40;;;1.10;;
81374;SDS011;70828;51.158;4.998;2023-07-29T09:47:50;1.30;;;0.90;;
81374;SDS011;70828;51.158;4.998;2023-07-29T09:50:17;0.98;;;0.75;;
81374;SDS011;70828;51.158;4.998;2023-07-29T09:52:44;1.40;;;0.90;;
81374;SDS011;70828;51.158;4.998;2023-07-29T09:55:11;2.78;;;0.80;;
81374;SDS011;70828;51.158;4.998;2023-07-29T09:57:39;2.78;;;1.00;;
81374;SDS011;70828;51.158;4.998;2023-07-29T10:00:07;3.08;;;0.90;;
81374;SDS011;70828;51.158;4.998;2023-07-29T10:02:38;2.55;;;0.90;;
81374;SDS011;70828;51.158;4.998;2023-07-29T10:05:06;1.58;;;1.00;;
81374;SDS011;70828;51.158;4.998;2023-07-29T10:07:33;1.77;;;0.90;;
81374;SDS011;70828;51.158;4.998;2023-07-29T10:10:01;1.45;;;0.95;;
81374;SDS011;70828;51.158;4.998;2023-07-29T10:12:28;1.05;;;0.90;;
81374;SDS011;70828;51.158;4.998;2023-07-29T10:14:57;1.80;;;1.10;;
81374;SDS011;70828;51.158;4.998;2023-07-29T10:17:27;1.40;;;1.20;;
81374;SDS011;70828;51.158;4.998;2023-07-29T10:19:54;1.52;;;1.02;;
81374;SDS011;70828;51.158;4.998;2023-07-29T10:22:22;1.85;;;1.02;;
81374;SDS011;70828;51.158;4.998;2023-07-29T10:24:51;2.08;;;1.27;;
81374;SDS011;70828;51.158;4.998;2023-07-29T10:27:20;1.58;;;1.10;;
81374;SDS011;70828;51.158;4.998;2023-07-29T10:29:47;3.22;;;1.23;;
81374;SDS011;70828;51.158;4.998;2023-07-29T10:32:15;3.28;;;1.00;;
81374;SDS011;70828;51.158;4.998;2023-07-29T10:34:43;1.33;;;0.82;;
81374;SDS011;70828;51.158;4.998;2023-07-29T10:37:10;3.63;;;1.33;;
81374;SDS011;70828;51.158;4.998;2023-07-29T10:39:40;1.33;;;1.15;;
81374;SDS011;70828;51.158;4.998;2023-07-29T10:42:07;5.60;;;1.15;;
81374;SDS011;70828;51.158;4.998;2023-07-29T10:44:45;4.15;;;0.98;;
81374;SDS011;70828;51.158;4.998;2023-07-29T10:47:14;2.35;;;1.45;;
81374;SDS011;70828;51.158;4.998;2023-07-29T10:49:41;1.95;;;1.10;;
81374;SDS011;70828;51.158;4.998;2023-07-29T10:52:09;2.30;;;1.00;;
81374;SDS011;70828;51.158;4.998;2023-07-29T10:54:41;1.63;;;1.30;;
81374;SDS011;70828;51.158;4.998;2023-07-29T10:57:08;1.73;;;1.20;;
81374;SDS011;70828;51.158;4.998;2023-07-29T10:59:39;2.10;;;1.27;;
81374;SDS011;70828;51.158;4.998;2023-07-29T11:02:11;3.08;;;0.98;;
81374;SDS011;70828;51.158;4.998;2023-07-29T11:04:47;1.55;;;1.10;;
81374;SDS011;70828;51.158;4.998;2023-07-29T11:07:23;1.40;;;0.95;;
81374;SDS011;70828;51.158;4.998;2023-07-29T11:09:53;2.22;;;1.13;;
81374;SDS011;70828;51.158;4.998;2023-07-29T11:12:37;2.30;;;1.00;;
81374;SDS011;70828;51.158;4.998;2023-07-29T11:15:12;1.42;;;1.33;;
81374;SDS011;70828;51.158;4.998;2023-07-29T11:17:41;1.23;;;0.95;;
81374;SDS011;70828;51.158;4.998;2023-07-29T11:20:08;1.35;;;1.00;;
81374;SDS011;70828;51.158;4.998;2023-07-29T11:22:37;1.50;;;1.05;;
81374;SDS011;70828;51.158;4.998;2023-07-29T11:25:04;1.75;;;1.20;;
81374;SDS011;70828;51.158;4.998;2023-07-29T11:27:34;1.60;;;1.20;;
81374;SDS011;70828;51.158;4.998;2023-07-29T11:30:02;1.77;;;1.20;;
81374;SDS011;70828;51.158;4.998;2023-07-29T11:32:30;2.13;;;0.98;;
81374;SDS011;70828;51.158;4.998;2023-07-29T11:34:57;2.67;;;0.90;;
81374;SDS011;70828;51.158;4.998;2023-07-29T11:39:54;1.50;;;0.90;;
81374;SDS011;70828;51.158;4.998;2023-07-29T11:42:20;2.05;;;1.10;;
81374;SDS011;70828;51.158;4.998;2023-07-29T11:44:47;1.88;;;1.05;;
81374;SDS011;70828;51.158;4.998;2023-07-29T11:47:14;18.33;;;2.40;;
81374;SDS011;70828;51.158;4.998;2023-07-29T11:49:40;4.30;;;1.60;;
81374;SDS011;70828;51.158;4.998;2023-07-29T11:52:08;12.50;;;2.53;;
81374;SDS011;70828;51.158;4.998;2023-07-29T11:54:36;4.20;;;2.15;;
81374;SDS011;70828;51.158;4.998;2023-07-29T11:57:05;3.58;;;1.98;;
81374;SDS011;70828;51.158;4.998;2023-07-29T11:59:32;4.15;;;1.90;;
81374;SDS011;70828;51.158;4.998;2023-07-29T12:02:00;3.95;;;1.48;;
81374;SDS011;70828;51.158;4.998;2023-07-29T12:04:27;5.60;;;2.00;;
81374;SDS011;70828;51.158;4.998;2023-07-29T12:06:54;5.22;;;2.22;;
81374;SDS011;70828;51.158;4.998;2023-07-29T12:09:20;7.70;;;2.55;;
81374;SDS011;70828;51.158;4.998;2023-07-29T12:11:47;2.95;;;1.88;;
81374;SDS011;70828;51.158;4.998;2023-07-29T12:14:17;2.83;;;1.80;;
81374;SDS011;70828;51.158;4.998;2023-07-29T12:19:11;3.20;;;1.88;;
81374;SDS011;70828;51.158;4.998;2023-07-29T12:21:38;3.40;;;2.10;;
81374;SDS011;70828;51.158;4.998;2023-07-29T12:24:05;4.18;;;2.13;;
81374;SDS011;70828;51.158;4.998;2023-07-29T12:26:32;3.83;;;2.60;;
81374;SDS011;70828;51.158;4.998;2023-07-29T12:28:58;3.13;;;1.77;;
81374;SDS011;70828;51.158;4.998;2023-07-29T12:31:31;4.85;;;2.45;;
81374;SDS011;70828;51.158;4.998;2023-07-29T12:33:58;7.38;;;3.15;;
81374;SDS011;70828;51.158;4.998;2023-07-29T12:36:27;5.07;;;2.83;;
81374;SDS011;70828;51.158;4.998;2023-07-29T12:38:53;2.83;;;1.92;;
81374;SDS011;70828;51.158;4.998;2023-07-29T12:41:25;3.17;;;2.22;;
81374;SDS011;70828;51.158;4.998;2023-07-29T12:43:52;2.03;;;1.80;;
81374;SDS011;70828;51.158;4.998;2023-07-29T12:46:18;3.22;;;1.98;;
81374;SDS011;70828;51.158;4.998;2023-07-29T12:48:46;3.83;;;2.20;;
81374;SDS011;70828;51.158;4.998;2023-07-29T12:51:13;3.28;;;1.70;;
81374;SDS011;70828;51.158;4.998;2023-07-29T12:53:40;5.78;;;2.22;;
81374;SDS011;70828;51.158;4.998;2023-07-29T12:56:06;3.95;;;2.03;;
81374;SDS011;70828;51.158;4.998;2023-07-29T12:58:33;3.47;;;1.75;;
81374;SDS011;70828;51.158;4.998;2023-07-29T13:00:59;4.90;;;2.05;;
81374;SDS011;70828;51.158;4.998;2023-07-29T13:03:26;3.83;;;2.38;;
81374;SDS011;70828;51.158;4.998;2023-07-29T13:05:55;3.58;;;2.60;;
81374;SDS011;70828;51.158;4.998;2023-07-29T13:08:22;5.93;;;2.58;;
81374;SDS011;70828;51.158;4.998;2023-07-29T13:10:49;4.50;;;2.55;;
81374;SDS011;70828;51.158;4.998;2023-07-29T13:13:15;2.63;;;2.15;;
81374;SDS011;70828;51.158;4.998;2023-07-29T13:15:42;3.03;;;2.13;;
81374;SDS011;70828;51.158;4.998;2023-07-29T13:18:08;4.68;;;1.92;;
81374;SDS011;70828;51.158;4.998;2023-07-29T13:20:35;4.75;;;2.50;;
81374;SDS011;70828;51.158;4.998;2023-07-29T13:23:04;2.42;;;1.98;;
81374;SDS011;70828;51.158;4.998;2023-07-29T13:25:30;3.28;;;2.03;;
81374;SDS011;70828;51.158;4.998;2023-07-29T13:27:57;2.38;;;1.90;;
81374;SDS011;70828;51.158;4.998;2023-07-29T13:30:24;3.15;;;1.60;;
81374;SDS011;70828;51.158;4.998;2023-07-29T13:32:50;2.45;;;1.50;;
81374;SDS011;70828;51.158;4.998;2023-07-29T13:35:17;2.38;;;1.60;;
81374;SDS011;70828;51.158;4.998;2023-07-29T13:37:43;4.07;;;1.80;;
81374;SDS011;70828;51.158;4.998;2023-07-29T13:40:11;3.17;;;2.10;;
81374;SDS011;70828;51.158;4.998;2023-07-29T13:42:38;4.75;;;2.13;;
81374;SDS011;70828;51.158;4.998;2023-07-29T13:45:05;3.33;;;1.50;;
81374;SDS011;70828;51.158;4.998;2023-07-29T13:47:33;2.70;;;1.73;;
81374;SDS011;70828;51.158;4.998;2023-07-29T13:50:02;2.40;;;1.40;;
81374;SDS011;70828;51.158;4.998;2023-07-29T13:54:55;2.45;;;1.38;;
81374;SDS011;70828;51.158;4.998;2023-07-29T13:57:23;1.75;;;1.30;;
81374;SDS011;70828;51.158;4.998;2023-07-29T13:59:50;1.35;;;1.17;;
81374;SDS011;70828;51.158;4.998;2023-07-29T14:02:17;1.40;;;1.10;;
81374;SDS011;70828;51.158;4.998;2023-07-29T14:04:43;1.52;;;1.02;;
81374;SDS011;70828;51.158;4.998;2023-07-29T14:07:10;1.90;;;1.10;;
81374;SDS011;70828;51.158;4.998;2023-07-29T14:09:37;1.85;;;1.05;;
81374;SDS011;70828;51.158;4.998;2023-07-29T14:12:04;1.20;;;1.10;;
81374;SDS011;70828;51.158;4.998;2023-07-29T14:14:32;1.48;;;1.02;;
81374;SDS011;70828;51.158;4.998;2023-07-29T14:16:59;1.85;;;1.30;;
81374;SDS011;70828;51.158;4.998;2023-07-29T14:19:26;3.45;;;1.35;;
81374;SDS011;70828;51.158;4.998;2023-07-29T14:21:52;2.92;;;1.55;;
81374;SDS011;70828;51.158;4.998;2023-07-29T14:24:19;1.98;;;1.63;;
81374;SDS011;70828;51.158;4.998;2023-07-29T14:26:47;1.75;;;1.40;;
81374;SDS011;70828;51.158;4.998;2023-07-29T14:29:13;1.90;;;1.42;;
81374;SDS011;70828;51.158;4.998;2023-07-29T14:31:41;1.88;;;1.33;;
81374;SDS011;70828;51.158;4.998;2023-07-29T14:34:08;2.83;;;1.77;;
81374;SDS011;70828;51.158;4.998;2023-07-29T14:36:35;2.78;;;1.90;;
81374;SDS011;70828;51.158;4.998;2023-07-29T14:39:02;5.85;;;1.60;;
81374;SDS011;70828;51.158;4.998;2023-07-29T14:41:29;5.32;;;1.50;;
81374;SDS011;70828;51.158;4.998;2023-07-29T14:43:56;2.08;;;1.45;;
81374;SDS011;70828;51.158;4.998;2023-07-29T14:46:23;2.65;;;1.08;;
81374;SDS011;70828;51.158;4.998;2023-07-29T14:48:51;2.20;;;1.45;;
81374;SDS011;70828;51.158;4.998;2023-07-29T14:51:17;1.40;;;1.23;;
81374;SDS011;70828;51.158;4.998;2023-07-29T14:53:44;2.03;;;1.50;;
81374;SDS011;70828;51.158;4.998;2023-07-29T14:56:10;2.47;;;1.42;;